createdAt,value
2019-03-31T00:00:36.944Z,58.19
2019-03-31T00:03:04.401Z,58.04
2019-03-31T00:05:32.766Z,58.26
2019-03-31T00:08:00.224Z,58.33
2019-03-31T00:10:27.678Z,58.62
2019-03-31T00:12:55.149Z,57.81
2019-03-31T00:15:22.628Z,57.10
2019-03-31T00:17:50.094Z,56.83
2019-03-31T00:20:17.553Z,56.68
2019-03-31T00:22:45.045Z,56.50
2019-03-31T00:25:12.464Z,57.00
2019-03-31T00:27:39.936Z,57.22
2019-03-31T00:30:07.363Z,57.65
2019-03-31T00:32:34.844Z,57.99
2019-03-31T00:35:02.525Z,58.48
2019-03-31T00:37:30.047Z,58.61
2019-03-31T00:39:57.994Z,58.25
2019-03-31T00:42:25.458Z,57.54
2019-03-31T00:44:53.642Z,57.34
2019-03-31T00:47:21.157Z,57.08
2019-03-31T00:49:48.628Z,58.31
2019-03-31T00:52:16.076Z,59.17
2019-03-31T00:54:43.558Z,59.30
2019-03-31T00:57:11.037Z,59.73
2019-03-31T00:59:39.075Z,60.70
2019-03-31T01:02:06.528Z,60.87
2019-03-31T01:04:33.971Z,60.66
2019-03-31T01:07:01.431Z,61.12
2019-03-31T01:09:28.948Z,61.21
2019-03-31T01:11:56.412Z,60.59
2019-03-31T01:14:23.869Z,59.65
2019-03-31T01:16:51.322Z,58.81
2019-03-31T01:19:18.776Z,59.27
2019-03-31T01:21:47.102Z,59.06
2019-03-31T01:24:14.654Z,59.50
2019-03-31T01:26:42.148Z,59.16
2019-03-31T01:29:09.600Z,59.70
2019-03-31T01:31:49.693Z,59.15
2019-03-31T01:34:04.528Z,58.92
2019-03-31T01:36:32.016Z,58.35
2019-03-31T01:38:59.474Z,57.95
2019-03-31T01:41:26.923Z,58.59
2019-03-31T01:43:54.408Z,58.23
2019-03-31T01:46:21.850Z,58.50
2019-03-31T01:48:49.302Z,58.58
2019-03-31T01:51:16.763Z,58.30
2019-03-31T01:53:44.222Z,58.16
2019-03-31T01:56:11.681Z,58.07
2019-03-31T01:58:40.039Z,57.87
2019-03-31T02:01:07.507Z,58.84
2019-03-31T02:03:34.926Z,58.81
2019-03-31T02:06:02.402Z,58.42
2019-03-31T02:08:29.856Z,60.47
2019-03-31T02:10:57.353Z,62.39
2019-03-31T02:13:24.817Z,63.24
2019-03-31T02:15:52.256Z,62.23
2019-03-31T02:18:20.819Z,60.74
2019-03-31T02:20:48.911Z,59.34
2019-03-31T02:23:16.379Z,59.12
2019-03-31T02:25:43.811Z,59.18
2019-03-31T02:28:11.286Z,58.95
2019-03-31T02:30:38.742Z,59.06
2019-03-31T02:33:06.610Z,59.34
2019-03-31T02:35:34.101Z,59.26
2019-03-31T02:38:02.344Z,59.06
2019-03-31T02:40:29.860Z,59.30
2019-03-31T02:42:57.330Z,59.28
2019-03-31T02:45:24.828Z,59.42
2019-03-31T02:47:52.274Z,59.71
2019-03-31T02:50:27.557Z,59.42
2019-03-31T02:52:55.567Z,59.67
2019-03-31T02:55:23.005Z,59.98
2019-03-31T02:57:51.434Z,60.10
2019-03-31T03:00:18.897Z,60.19
2019-03-31T03:02:46.391Z,60.50
2019-03-31T03:05:19.793Z,60.65
2019-03-31T03:07:41.997Z,61.11
2019-03-31T03:10:09.448Z,61.36
2019-03-31T03:12:37.205Z,61.67
2019-03-31T03:15:04.695Z,62.03
2019-03-31T03:17:32.173Z,62.20
2019-03-31T03:19:59.680Z,62.19
2019-03-31T03:22:27.100Z,62.36
2019-03-31T03:24:54.553Z,62.42
2019-03-31T03:27:23.537Z,62.88
2019-03-31T03:29:51.007Z,62.76
2019-03-31T03:32:18.451Z,63.02
2019-03-31T03:34:45.914Z,63.27
2019-03-31T03:37:13.369Z,63.49
2019-03-31T03:39:40.904Z,63.51
2019-03-31T03:42:08.358Z,63.64
2019-03-31T03:44:35.827Z,63.49
2019-03-31T03:47:03.652Z,63.20
2019-03-31T03:49:31.183Z,63.12
2019-03-31T03:51:58.645Z,63.22
2019-03-31T03:54:26.138Z,63.21
2019-03-31T03:56:53.617Z,63.36
2019-03-31T03:59:21.061Z,62.97
2019-03-31T04:01:48.521Z,62.97
2019-03-31T04:04:15.959Z,62.82
2019-03-31T04:06:43.426Z,63.01
2019-03-31T04:09:10.923Z,63.18
2019-03-31T04:11:38.411Z,63.17
2019-03-31T04:14:05.874Z,63.55
2019-03-31T04:16:33.323Z,63.57
2019-03-31T04:19:00.806Z,63.68
2019-03-31T04:21:28.269Z,63.49
2019-03-31T04:23:55.727Z,63.70
2019-03-31T04:26:23.224Z,63.84
2019-03-31T04:28:50.712Z,63.93
2019-03-31T04:31:18.157Z,64.50
2019-03-31T04:33:51.588Z,64.63
2019-03-31T04:36:13.726Z,64.76
2019-03-31T04:38:41.181Z,65.18
2019-03-31T04:41:09.379Z,64.79
2019-03-31T04:43:36.850Z,64.91
2019-03-31T04:46:04.300Z,64.37
2019-03-31T04:48:31.758Z,65.01
2019-03-31T04:50:59.223Z,65.18
2019-03-31T04:53:26.663Z,65.33
2019-03-31T04:55:54.161Z,65.23
2019-03-31T04:58:21.652Z,65.01
2019-03-31T05:00:49.109Z,65.45
2019-03-31T05:03:16.704Z,65.42
2019-03-31T05:05:44.305Z,65.52
2019-03-31T05:08:11.766Z,65.48
2019-03-31T05:10:39.230Z,65.08
2019-03-31T05:13:06.691Z,65.62
2019-03-31T05:15:34.319Z,65.57
2019-03-31T05:18:01.841Z,65.51
2019-03-31T05:20:29.333Z,65.39
2019-03-31T05:22:56.768Z,65.45
2019-03-31T05:25:24.212Z,65.57
2019-03-31T05:27:51.874Z,65.78
2019-03-31T05:30:19.329Z,65.35
2019-03-31T05:32:46.775Z,65.67
2019-03-31T05:35:14.925Z,65.65
2019-03-31T05:37:50.922Z,65.82
2019-03-31T05:40:09.882Z,65.50
2019-03-31T05:42:37.346Z,65.73
2019-03-31T05:45:04.808Z,65.58
2019-03-31T05:47:32.401Z,65.77
2019-03-31T05:49:59.863Z,65.97
2019-03-31T05:52:27.298Z,65.97
2019-03-31T05:54:54.778Z,66.28
2019-03-31T05:57:22.312Z,66.17
2019-03-31T05:59:49.786Z,66.38
2019-03-31T06:02:17.259Z,66.28
2019-03-31T06:04:45.412Z,66.68
2019-03-31T06:07:12.924Z,67.39
2019-03-31T06:09:40.370Z,67.27
2019-03-31T06:12:07.837Z,67.65
2019-03-31T06:14:35.318Z,67.78
2019-03-31T06:17:02.772Z,68.02
2019-03-31T06:19:30.305Z,67.80
2019-03-31T06:21:57.754Z,68.32
2019-03-31T06:24:26.243Z,68.26
2019-03-31T06:26:53.712Z,67.96
2019-03-31T06:29:21.184Z,68.28
2019-03-31T06:31:48.699Z,68.17
2019-03-31T06:34:16.189Z,68.39
2019-03-31T06:36:43.635Z,68.87
2019-03-31T06:39:11.122Z,68.95
2019-03-31T06:41:38.586Z,69.46
2019-03-31T06:44:06.024Z,69.46
2019-03-31T06:46:33.506Z,69.49
2019-03-31T06:49:01.026Z,70.00
2019-03-31T06:51:28.499Z,70.00
2019-03-31T06:53:55.939Z,69.63
2019-03-31T06:56:23.402Z,69.82
2019-03-31T06:58:50.908Z,69.67
2019-03-31T07:01:18.383Z,70.35
2019-03-31T07:03:46.506Z,70.57
2019-03-31T07:06:13.975Z,70.86
2019-03-31T07:08:41.472Z,70.64
2019-03-31T07:11:08.970Z,70.93
2019-03-31T07:13:36.438Z,71.19
2019-03-31T07:16:03.918Z,70.98
2019-03-31T07:18:31.359Z,71.19
2019-03-31T07:20:58.832Z,71.82
2019-03-31T07:23:26.313Z,71.76
2019-03-31T07:25:53.838Z,71.82
2019-03-31T07:28:22.339Z,72.30
2019-03-31T07:30:50.306Z,72.20
2019-03-31T07:33:17.773Z,72.49
2019-03-31T07:35:45.252Z,73.05
2019-03-31T07:38:12.672Z,73.23
2019-03-31T07:40:40.468Z,73.56
2019-03-31T07:43:07.787Z,73.57
2019-03-31T07:45:35.184Z,73.99
2019-03-31T07:48:02.670Z,74.25
2019-03-31T07:50:30.119Z,74.41
2019-03-31T07:52:57.588Z,74.16
2019-03-31T07:55:25.032Z,74.37
2019-03-31T07:57:54.528Z,74.62
2019-03-31T08:00:19.997Z,74.33
2019-03-31T08:02:47.668Z,74.10
2019-03-31T08:05:15.198Z,73.98
2019-03-31T08:07:42.704Z,74.13
2019-03-31T08:10:10.170Z,74.34
2019-03-31T08:12:37.908Z,74.02
2019-03-31T08:15:06.618Z,73.78
2019-03-31T08:17:34.104Z,73.96
2019-03-31T08:20:01.611Z,74.16
2019-03-31T08:22:29.102Z,74.09
2019-03-31T08:24:56.555Z,74.15
2019-03-31T08:27:24.009Z,74.00
2019-03-31T08:30:00.072Z,73.81
2019-03-31T08:32:19.244Z,73.56
2019-03-31T08:34:46.674Z,73.47
2019-03-31T08:37:14.587Z,73.53
2019-03-31T08:39:42.047Z,73.10
2019-03-31T08:42:09.527Z,73.35
2019-03-31T08:44:37.738Z,73.37
2019-03-31T08:47:05.189Z,73.49
2019-03-31T08:49:32.688Z,73.35
2019-03-31T08:52:01.179Z,73.37
2019-03-31T08:54:28.663Z,73.43
2019-03-31T08:56:56.106Z,73.18
2019-03-31T08:59:24.297Z,73.12
2019-03-31T09:01:51.756Z,73.16
2019-03-31T09:04:19.199Z,73.10
2019-03-31T09:06:47.234Z,73.37
2019-03-31T09:09:14.713Z,73.22
2019-03-31T09:11:42.197Z,73.08
2019-03-31T09:14:09.668Z,72.73
2019-03-31T09:16:37.158Z,72.86
2019-03-31T09:19:04.647Z,73.18
2019-03-31T09:21:32.737Z,72.78
2019-03-31T09:24:00.184Z,73.01
2019-03-31T09:26:27.665Z,73.42
2019-03-31T09:28:55.113Z,73.23
2019-03-31T09:31:22.637Z,73.01
2019-03-31T09:33:50.632Z,72.97
2019-03-31T09:36:19.158Z,73.13
2019-03-31T09:38:48.566Z,73.34
2019-03-31T09:41:14.108Z,72.98
2019-03-31T09:43:41.576Z,72.77
2019-03-31T09:46:09.033Z,72.97
2019-03-31T09:48:36.483Z,73.13
2019-03-31T09:51:03.941Z,73.04
2019-03-31T09:53:31.392Z,72.93
2019-03-31T09:55:58.826Z,72.90
2019-03-31T09:58:26.274Z,73.03
2019-03-31T10:00:53.833Z,72.55
2019-03-31T10:03:47.281Z,72.69
2019-03-31T10:06:14.756Z,72.48
2019-03-31T10:08:42.201Z,73.04
2019-03-31T10:11:09.663Z,72.35
2019-03-31T10:13:37.119Z,72.10
2019-03-31T10:16:04.561Z,71.63
2019-03-31T10:18:32.053Z,71.83
2019-03-31T10:23:50.766Z,72.09
2019-03-31T10:26:31.021Z,71.93
2019-03-31T10:28:45.685Z,71.98
2019-03-31T10:31:13.157Z,71.52
2019-03-31T10:33:40.620Z,71.64
2019-03-31T10:36:08.069Z,71.48
2019-03-31T10:38:35.538Z,70.99
2019-03-31T10:41:03.017Z,71.21
2019-03-31T10:43:30.508Z,71.36
2019-03-31T10:45:57.949Z,71.17
2019-03-31T10:48:25.413Z,70.98
2019-03-31T10:50:52.867Z,71.21
2019-03-31T10:53:20.518Z,70.81
2019-03-31T10:55:47.985Z,70.77
2019-03-31T10:58:15.428Z,70.30
2019-03-31T11:00:44.733Z,70.42
2019-03-31T11:03:10.335Z,70.52
2019-03-31T11:05:37.880Z,70.70
2019-03-31T11:08:05.298Z,70.36
2019-03-31T11:10:32.734Z,70.40
2019-03-31T11:13:00.194Z,70.55
2019-03-31T11:15:28.073Z,70.23
2019-03-31T11:17:55.501Z,70.07
2019-03-31T11:20:22.931Z,70.43
2019-03-31T11:23:05.291Z,69.99
2019-03-31T11:25:32.710Z,70.26
2019-03-31T11:30:21.797Z,69.85
2019-03-31T11:32:49.244Z,69.69
2019-03-31T11:35:16.685Z,69.90
2019-03-31T11:37:45.054Z,68.95
2019-03-31T11:40:12.516Z,69.26
2019-03-31T11:42:39.951Z,70.25
2019-03-31T11:45:07.377Z,68.95
2019-03-31T11:47:34.817Z,68.33
2019-03-31T11:50:02.263Z,68.20
2019-03-31T11:52:29.675Z,68.57
2019-03-31T11:54:57.127Z,68.45
2019-03-31T11:57:24.569Z,67.82
2019-03-31T11:59:53.595Z,68.52
2019-03-31T12:02:27.497Z,67.58
2019-03-31T12:04:49.278Z,67.16
2019-03-31T12:07:27.961Z,67.16
2019-03-31T12:09:45.208Z,67.45
2019-03-31T12:12:12.668Z,66.55
2019-03-31T12:14:40.215Z,66.16
2019-03-31T12:17:07.673Z,66.44
2019-03-31T12:19:35.152Z,66.52
2019-03-31T12:22:02.575Z,66.81
2019-03-31T12:24:30.887Z,66.81
2019-03-31T12:26:58.474Z,66.23
2019-03-31T12:29:25.901Z,66.23
2019-03-31T12:31:53.577Z,67.25
2019-03-31T12:34:20.991Z,66.50
2019-03-31T12:36:48.513Z,65.71
2019-03-31T12:39:15.967Z,66.00
2019-03-31T12:41:43.390Z,65.56
2019-03-31T12:44:10.852Z,65.97
2019-03-31T12:46:38.285Z,65.59
2019-03-31T14:07:04.614Z,65.93
2019-03-31T14:09:31.714Z,65.49
2019-03-31T14:11:59.174Z,65.56
2019-03-31T14:14:26.602Z,65.54
2019-03-31T14:16:54.081Z,64.28
2019-03-31T14:19:21.506Z,64.39
2019-03-31T14:21:49.029Z,64.59
2019-03-31T14:24:16.587Z,63.87
2019-03-31T14:26:47.508Z,64.48
2019-03-31T14:29:12.521Z,63.49
2019-03-31T14:31:39.953Z,63.20
2019-03-31T14:34:07.397Z,63.02
2019-03-31T14:36:34.856Z,62.00
2019-03-31T14:39:02.342Z,61.42
2019-03-31T14:41:29.767Z,62.94
2019-03-31T14:43:57.220Z,62.28
2019-03-31T14:46:25.629Z,60.99
2019-03-31T14:48:53.070Z,61.51
2019-03-31T14:51:20.538Z,62.51
2019-03-31T14:53:48.846Z,61.78
2019-03-31T14:56:16.322Z,61.25
2019-03-31T14:58:43.768Z,61.06
2019-03-31T15:01:11.347Z,61.05
2019-03-31T15:03:38.788Z,60.61
2019-03-31T15:06:06.222Z,60.16
2019-03-31T15:08:33.690Z,60.16
2019-03-31T15:11:01.134Z,60.85
2019-03-31T15:13:28.585Z,59.91
2019-03-31T15:15:56.050Z,59.97
2019-03-31T15:18:23.512Z,60.07
2019-03-31T15:20:50.951Z,59.99
2019-03-31T15:23:18.415Z,60.02
2019-03-31T15:25:46.634Z,59.96
2019-03-31T15:28:14.083Z,60.12
2019-03-31T15:30:41.531Z,59.98
2019-03-31T15:33:08.959Z,59.58
2019-03-31T15:35:37.845Z,59.10
2019-03-31T15:38:04.195Z,59.00
2019-03-31T15:40:31.674Z,59.30
2019-03-31T15:42:59.879Z,60.04
2019-03-31T15:45:27.302Z,59.09
2019-03-31T15:47:55.871Z,59.49
2019-03-31T15:50:23.348Z,59.05
2019-03-31T15:52:50.775Z,58.52
2019-03-31T15:55:18.238Z,58.84
2019-03-31T15:57:45.682Z,58.94
2019-03-31T16:00:13.145Z,59.41
2019-03-31T16:02:40.624Z,59.22
2019-03-31T16:05:08.063Z,59.61
2019-03-31T16:07:35.516Z,60.21
2019-03-31T16:10:02.972Z,59.78
2019-03-31T16:12:30.453Z,60.02
2019-03-31T16:14:57.883Z,59.80
2019-03-31T16:17:26.158Z,60.31
2019-03-31T16:19:53.580Z,60.47
2019-03-31T16:22:21.025Z,60.46
2019-03-31T16:24:48.549Z,60.30
2019-03-31T16:27:16.001Z,59.79
2019-03-31T16:29:43.441Z,59.32
2019-03-31T16:32:10.880Z,59.57
2019-03-31T16:34:38.307Z,59.31
2019-03-31T16:37:06.734Z,58.96
2019-03-31T16:39:37.788Z,58.94
2019-03-31T16:42:01.634Z,59.04
2019-03-31T16:44:29.056Z,58.52
2019-03-31T16:46:56.629Z,58.42
2019-03-31T16:49:24.070Z,58.73
2019-03-31T16:51:51.502Z,58.59
2019-03-31T16:54:18.936Z,58.56
2019-03-31T16:56:46.353Z,58.71
2019-03-31T16:59:13.809Z,58.57
2019-03-31T17:01:41.260Z,58.95
2019-03-31T17:04:08.713Z,58.60
2019-03-31T17:06:37.075Z,58.38
2019-03-31T17:09:04.515Z,58.68
2019-03-31T17:11:31.938Z,58.36
2019-03-31T17:14:00.345Z,58.55
2019-03-31T17:16:27.805Z,58.87
2019-03-31T17:18:55.224Z,58.52
2019-03-31T17:21:22.668Z,58.53
2019-03-31T17:23:50.309Z,58.63
2019-03-31T17:26:17.789Z,58.99
2019-03-31T17:28:45.235Z,58.99
2019-03-31T17:31:12.682Z,58.98
2019-03-31T17:33:40.134Z,59.10
2019-03-31T17:36:07.575Z,58.75
2019-03-31T17:38:35.008Z,58.89
2019-03-31T17:41:02.434Z,58.50
2019-03-31T17:43:29.891Z,58.64
2019-03-31T17:45:57.653Z,58.46
2019-03-31T17:48:25.078Z,58.21
2019-03-31T17:50:52.556Z,58.43
2019-03-31T17:53:20.017Z,58.42
2019-03-31T17:55:47.506Z,58.46
2019-03-31T17:58:14.957Z,58.65
2019-03-31T18:00:42.405Z,58.78
2019-03-31T18:03:11.034Z,58.88
2019-03-31T18:05:38.504Z,58.78
2019-03-31T18:08:05.964Z,58.86
2019-03-31T18:10:33.429Z,59.16
2019-03-31T18:13:00.885Z,59.12
2019-03-31T18:15:28.335Z,58.63
2019-03-31T18:17:55.779Z,58.75
2019-03-31T18:20:23.209Z,58.19
2019-03-31T18:22:50.653Z,58.00
2019-03-31T18:25:19.638Z,58.03
2019-03-31T18:27:47.085Z,57.94
2019-03-31T18:30:14.548Z,57.96
2019-03-31T18:32:42.012Z,57.53
2019-03-31T18:35:09.443Z,57.71
2019-03-31T18:37:36.905Z,57.79
2019-03-31T18:40:04.326Z,57.67
2019-03-31T18:42:31.785Z,57.77
2019-03-31T18:44:59.240Z,57.59
2019-03-31T18:47:27.343Z,57.57
2019-03-31T18:49:54.900Z,57.58
2019-03-31T18:52:22.325Z,57.53
2019-03-31T18:54:49.796Z,57.15
2019-03-31T18:57:27.116Z,57.38
2019-03-31T19:00:00.500Z,57.08
2019-03-31T19:02:31.408Z,56.87
2019-03-31T19:05:04.706Z,56.85
2019-03-31T19:07:37.999Z,56.81
2019-03-31T19:10:24.867Z,56.79
2019-03-31T19:12:54.083Z,56.89
2019-03-31T19:15:36.409Z,56.93
2019-03-31T19:18:09.464Z,56.86
2019-03-31T19:26:48.400Z,56.42
2019-03-31T19:29:05.592Z,56.22
2019-03-31T19:31:33.370Z,55.72
2019-03-31T19:34:16.593Z,55.95
2019-03-31T19:36:44.806Z,55.52
2019-03-31T19:39:15.053Z,55.52
2019-03-31T19:41:48.037Z,55.31
2019-03-31T19:44:20.000Z,54.95
2019-03-31T19:46:50.270Z,55.40
2019-03-31T19:49:18.199Z,54.95
2019-03-31T19:52:06.482Z,54.71
2019-03-31T19:54:44.583Z,54.64
2019-03-31T19:57:17.582Z,54.61
2019-03-31T19:59:45.826Z,54.49
2019-03-31T20:02:25.327Z,54.48
2019-03-31T20:04:53.213Z,54.42
2019-03-31T20:07:21.464Z,54.91
2019-03-31T20:09:53.307Z,54.29
2019-03-31T20:12:23.592Z,54.73
2019-03-31T20:15:02.737Z,54.62
2019-03-31T20:17:33.651Z,54.54
2019-03-31T20:20:02.386Z,54.81
2019-03-31T20:22:47.663Z,54.83
2019-03-31T20:25:12.958Z,54.82
2019-03-31T20:27:46.071Z,54.98
2019-03-31T20:30:32.344Z,55.14
2019-03-31T20:33:14.657Z,55.28
2019-03-31T20:36:01.824Z,55.10
2019-03-31T20:38:45.057Z,55.13
2019-03-31T20:41:15.365Z,55.10
2019-03-31T20:43:42.815Z,55.26
2019-03-31T20:46:10.266Z,55.13
2019-03-31T20:48:37.704Z,55.26
2019-03-31T20:51:05.158Z,55.19
2019-03-31T20:53:32.618Z,55.02
2019-03-31T20:56:00.083Z,55.20
2019-03-31T20:58:27.505Z,55.19
2019-03-31T21:00:54.958Z,55.39
2019-03-31T21:03:22.386Z,55.56
2019-03-31T21:05:49.823Z,55.67
2019-03-31T21:08:17.277Z,55.59
2019-03-31T21:10:44.722Z,55.71
2019-03-31T21:13:12.142Z,55.76
2019-03-31T21:15:39.620Z,56.11
2019-03-31T21:18:07.082Z,56.31
2019-03-31T21:20:34.500Z,56.40
2019-03-31T21:23:02.787Z,56.51
2019-03-31T21:25:30.209Z,56.35
2019-03-31T21:27:57.636Z,56.42
2019-03-31T21:30:25.110Z,56.64
2019-03-31T21:32:52.577Z,56.82
2019-03-31T21:35:20.010Z,56.98
2019-03-31T21:37:47.595Z,57.46
2019-03-31T21:40:15.041Z,57.34
2019-03-31T21:42:42.496Z,57.24
2019-03-31T21:45:09.912Z,57.37
2019-03-31T21:47:37.348Z,57.51
2019-03-31T21:50:04.793Z,57.69
2019-03-31T21:52:32.217Z,57.61
2019-03-31T21:54:59.682Z,57.75
2019-03-31T21:57:27.126Z,57.80
2019-03-31T21:59:54.556Z,57.78
2019-03-31T22:02:21.995Z,58.04
2019-03-31T22:04:49.459Z,58.17
2019-03-31T22:07:16.884Z,57.98
2019-03-31T22:09:44.329Z,57.69
2019-03-31T22:12:11.764Z,57.86
2019-03-31T22:14:39.305Z,57.42
2019-03-31T22:17:06.742Z,57.49
2019-03-31T22:19:34.142Z,57.44
2019-03-31T22:22:01.622Z,57.37
2019-03-31T22:24:29.042Z,57.14
2019-03-31T22:26:56.492Z,57.54
2019-03-31T22:29:24.469Z,57.26
2019-03-31T22:31:51.946Z,57.38
2019-03-31T22:34:19.378Z,57.38
2019-03-31T22:36:46.817Z,57.47
2019-03-31T22:39:14.246Z,57.50
2019-03-31T22:41:41.682Z,57.43
2019-03-31T22:44:09.123Z,57.52
2019-03-31T22:46:36.553Z,57.76
2019-03-31T22:49:04.003Z,57.68
2019-03-31T22:51:31.416Z,57.59
2019-03-31T22:53:58.858Z,57.85
2019-03-31T22:56:26.305Z,57.92
2019-03-31T22:58:54.506Z,57.79
2019-03-31T23:01:21.973Z,58.20
2019-03-31T23:03:49.493Z,58.33
2019-03-31T23:06:16.954Z,57.93
2019-03-31T23:08:44.389Z,58.20
2019-03-31T23:11:11.830Z,58.22
2019-03-31T23:13:39.299Z,58.27
2019-03-31T23:16:06.741Z,57.97
2019-03-31T23:18:34.223Z,58.26
2019-03-31T23:21:01.689Z,58.41
2019-03-31T23:23:29.123Z,58.46
2019-03-31T23:25:56.534Z,58.53
2019-03-31T23:28:24.701Z,58.35
2019-03-31T23:30:52.114Z,58.37
2019-03-31T23:33:19.559Z,58.30
2019-03-31T23:35:47.686Z,58.56
2019-03-31T23:38:15.118Z,58.50
2019-03-31T23:40:42.571Z,58.53
2019-03-31T23:43:10.089Z,58.65
2019-03-31T23:45:37.530Z,58.75
2019-03-31T23:48:04.975Z,58.92
2019-03-31T23:50:32.399Z,59.06
2019-03-31T23:52:59.871Z,59.27
2019-03-31T23:55:27.306Z,59.49
2019-03-31T23:57:54.767Z,59.44
